createdAt,value
2019-02-16T00:01:30.120Z,14.90
2019-02-16T00:04:04.747Z,14.50
2019-02-16T00:06:40.598Z,14.23
2019-02-16T00:09:16.246Z,14.33
2019-02-16T00:11:50.461Z,13.67
2019-02-16T00:14:43.720Z,13.67
2019-02-16T00:17:17.525Z,15.37
2019-02-16T00:19:53.583Z,20.10
2019-02-16T00:22:28.259Z,16.80
2019-02-16T00:25:02.838Z,15.40
2019-02-16T00:27:38.479Z,14.87
2019-02-16T00:30:20.399Z,28.67
2019-02-16T00:32:57.773Z,31.43
2019-02-16T00:35:35.842Z,29.87
2019-02-16T00:38:09.468Z,22.43
2019-02-16T00:40:44.706Z,27.83
2019-02-16T00:43:19.738Z,29.83
2019-02-16T00:45:55.295Z,24.20
2019-02-16T00:48:30.833Z,20.90
2019-02-16T00:51:13.738Z,22.30
2019-02-16T00:53:48.680Z,21.93
2019-02-16T00:56:24.531Z,22.47
2019-02-16T00:59:02.642Z,26.67
2019-02-16T01:01:39.259Z,24.97
2019-02-16T01:04:13.934Z,21.80
2019-02-16T01:06:48.967Z,20.27
2019-02-16T01:09:23.438Z,17.90
2019-02-16T01:11:58.010Z,16.40
2019-02-16T01:14:33.485Z,15.80
2019-02-16T01:17:08.899Z,13.90
2019-02-16T01:19:45.980Z,13.07
2019-02-16T01:22:21.010Z,12.13
2019-02-16T01:24:56.046Z,12.90
2019-02-16T01:27:30.572Z,13.83
2019-02-16T01:30:07.574Z,12.63
2019-02-16T01:32:42.989Z,12.77
2019-02-16T01:35:18.842Z,12.77
2019-02-16T01:37:56.192Z,13.07
2019-02-16T01:40:30.752Z,12.80
2019-02-16T01:43:06.810Z,13.33
2019-02-16T01:45:42.587Z,12.57
2019-02-16T01:48:17.596Z,13.40
2019-02-16T01:50:52.114Z,12.50
2019-02-16T01:53:26.595Z,12.77
2019-02-16T01:56:01.976Z,14.10
2019-02-16T01:58:37.009Z,13.33
2019-02-16T02:01:12.452Z,13.07
2019-02-16T02:07:16.620Z,13.23
2019-02-16T02:09:51.007Z,13.43
2019-02-16T02:12:27.068Z,12.63
2019-02-16T02:15:02.099Z,13.10
2019-02-16T02:17:37.950Z,14.40
2019-02-16T02:23:42.083Z,14.33
2019-02-16T02:26:18.142Z,13.10
2019-02-16T02:28:54.817Z,12.93
2019-02-16T02:31:37.738Z,13.67
2019-02-16T02:34:10.822Z,13.83
2019-02-16T02:36:46.600Z,14.23
2019-02-16T02:39:20.890Z,14.23
2019-02-16T02:41:56.943Z,13.63
2019-02-16T02:44:32.701Z,13.97
2019-02-16T02:47:09.061Z,13.13
2019-02-16T02:49:44.092Z,13.27
2019-02-16T02:56:01.600Z,12.17
2019-02-16T02:58:35.604Z,12.50
2019-02-16T03:01:09.603Z,12.63
2019-02-16T03:03:43.601Z,11.87
2019-02-16T03:06:17.988Z,13.43
2019-02-16T03:08:52.816Z,13.47
2019-02-16T03:11:28.603Z,12.50
2019-02-16T03:14:05.138Z,12.50
2019-02-16T03:16:40.611Z,12.33
2019-02-16T03:19:14.621Z,12.90
2019-02-16T03:22:00.596Z,12.53
2019-02-16T03:24:28.603Z,12.23
2019-02-16T03:27:37.607Z,12.50
2019-02-16T03:31:06.883Z,10.80
2019-02-16T03:33:54.820Z,12.03
2019-02-16T03:37:02.005Z,10.93
2019-02-16T03:39:41.139Z,12.03
2019-02-16T03:42:15.608Z,11.97
2019-02-16T03:44:49.610Z,11.60
2019-02-16T03:47:24.646Z,11.90
2019-02-16T03:49:59.834Z,11.80
2019-02-16T03:52:35.893Z,11.97
2019-02-16T03:55:12.156Z,10.83
2019-02-16T03:57:48.828Z,13.27
2019-02-16T04:00:23.244Z,12.43
2019-02-16T04:02:57.869Z,11.47
2019-02-16T04:05:33.927Z,11.87
2019-02-16T04:08:09.608Z,11.13
2019-02-16T04:10:43.614Z,10.03
2019-02-16T04:13:17.626Z,10.80
2019-02-16T04:15:52.833Z,11.53
2019-02-16T04:18:26.841Z,11.97
2019-02-16T04:21:14.984Z,11.37
2019-02-16T04:23:50.834Z,12.33
2019-02-16T04:29:21.811Z,11.33
2019-02-16T04:31:56.825Z,11.10
2019-02-16T04:34:43.327Z,11.90
2019-02-16T04:37:19.184Z,11.83
2019-02-16T04:39:55.035Z,11.17
2019-02-16T04:42:32.113Z,11.37
2019-02-16T04:45:07.971Z,13.00
2019-02-16T04:47:44.026Z,12.03
2019-02-16T04:50:20.084Z,12.67
2019-02-16T04:52:56.673Z,13.13
2019-02-16T04:55:32.211Z,11.60
2019-02-16T04:58:10.101Z,11.63
2019-02-16T05:00:47.182Z,12.03
2019-02-16T05:03:22.827Z,12.47
2019-02-16T05:06:00.169Z,12.53
2019-02-16T05:08:38.833Z,12.67
2019-02-16T05:11:15.099Z,11.03
2019-02-16T05:13:52.386Z,11.27
2019-02-16T05:16:27.657Z,12.27
2019-02-16T05:19:03.882Z,11.70
2019-02-16T05:21:40.554Z,10.90
2019-02-16T05:24:14.631Z,10.63
2019-02-16T05:26:55.538Z,10.27
2019-02-16T05:29:33.845Z,10.70
2019-02-16T05:32:06.832Z,10.00
2019-02-16T05:34:43.096Z,10.60
2019-02-16T05:37:17.631Z,9.50
2019-02-16T05:39:52.628Z,9.97
2019-02-16T05:42:27.628Z,10.57
2019-02-16T05:45:04.093Z,9.53
2019-02-16T05:50:21.082Z,10.60
2019-02-16T05:52:58.169Z,11.00
2019-02-16T05:55:32.639Z,11.27
2019-02-16T05:58:07.643Z,11.07
2019-02-16T06:00:42.850Z,11.27
2019-02-16T06:03:18.908Z,11.00
2019-02-16T06:05:54.145Z,10.57
2019-02-16T06:08:30.648Z,11.30
2019-02-16T06:11:13.020Z,10.73
2019-02-16T06:13:50.102Z,11.13
2019-02-16T06:16:26.703Z,11.50
2019-02-16T06:19:03.240Z,10.23
2019-02-16T06:21:37.865Z,9.97
2019-02-16T06:24:21.909Z,9.57
2019-02-16T06:26:56.647Z,9.93
2019-02-16T06:29:30.135Z,11.07
2019-02-16T06:32:08.334Z,8.97
2019-02-16T06:34:44.648Z,9.80
2019-02-16T06:37:24.048Z,9.53
2019-02-16T06:39:59.074Z,8.97
2019-02-16T06:42:39.678Z,8.23
2019-02-16T06:45:18.750Z,9.30
2019-02-16T06:47:56.053Z,9.90
2019-02-16T06:50:36.732Z,9.30
2019-02-16T06:53:13.242Z,8.50
2019-02-16T06:55:52.216Z,8.70
2019-02-16T06:58:26.664Z,8.70
2019-02-16T07:01:03.518Z,10.17
2019-02-16T07:03:38.131Z,8.80
2019-02-16T07:06:13.651Z,9.43
2019-02-16T07:08:50.251Z,9.80
2019-02-16T07:11:24.876Z,9.40
2019-02-16T07:14:00.110Z,10.23
2019-02-16T07:16:59.105Z,10.23
2019-02-16T07:19:40.283Z,10.70
2019-02-16T07:22:15.929Z,9.20
2019-02-16T07:24:52.195Z,9.43
2019-02-16T07:27:26.652Z,10.27
2019-02-16T07:30:03.078Z,10.10
2019-02-16T07:32:38.111Z,9.47
2019-02-16T07:35:14.168Z,9.67
2019-02-16T07:37:48.664Z,10.40
2019-02-16T07:40:24.237Z,10.70
2019-02-16T07:43:06.452Z,9.77
2019-02-16T07:45:58.880Z,9.67
2019-02-16T07:49:01.655Z,10.07
2019-02-16T07:51:47.857Z,9.70
2019-02-16T07:54:53.537Z,12.33
2019-02-16T07:58:00.655Z,10.90
2019-02-16T08:01:00.665Z,11.00
2019-02-16T08:03:55.103Z,11.53
2019-02-16T08:06:49.527Z,11.10
2019-02-16T08:09:48.181Z,11.20
2019-02-16T08:12:39.671Z,11.70
2019-02-16T08:15:28.162Z,10.27
2019-02-16T08:18:22.673Z,11.30
2019-02-16T08:21:18.968Z,10.70
2019-02-16T08:24:15.505Z,11.00
2019-02-16T08:27:07.334Z,10.70
2019-02-16T08:29:58.136Z,12.43
2019-02-16T08:32:50.668Z,10.53
2019-02-16T08:35:44.685Z,11.23
2019-02-16T08:38:40.775Z,11.60
2019-02-16T08:41:26.878Z,11.33
2019-02-16T08:44:21.665Z,12.17
2019-02-16T08:47:05.206Z,10.63
2019-02-16T08:50:03.665Z,10.97
2019-02-16T08:53:00.946Z,11.37
2019-02-16T08:55:48.881Z,11.33
2019-02-16T08:59:02.008Z,11.33
2019-02-16T09:02:03.869Z,11.93
2019-02-16T09:04:49.142Z,11.83
2019-02-16T09:07:43.667Z,11.63
2019-02-16T09:14:03.333Z,11.63
2019-02-16T09:17:02.672Z,11.13
2019-02-16T09:20:02.672Z,10.77
2019-02-16T09:22:50.154Z,9.90
2019-02-16T09:32:06.672Z,10.53
2019-02-16T09:38:51.669Z,10.83
2019-02-16T09:49:08.883Z,9.57
2019-02-16T10:02:16.130Z,8.43
2019-02-16T10:05:11.675Z,7.23
2019-02-16T10:08:01.013Z,7.40
2019-02-16T10:11:00.009Z,8.83
2019-02-16T10:13:57.161Z,8.63
2019-02-16T10:16:57.998Z,9.20
2019-02-16T10:26:47.670Z,8.97
2019-02-16T10:33:16.773Z,6.63
2019-02-16T10:36:08.161Z,5.93
2019-02-16T10:42:25.195Z,5.53
2019-02-16T10:48:35.059Z,5.57
2019-02-16T10:51:32.671Z,4.97
2019-02-16T10:54:28.057Z,4.67
2019-02-16T10:57:31.022Z,5.43
2019-02-16T11:00:29.676Z,4.87
2019-02-16T11:03:14.061Z,5.13
2019-02-16T11:06:06.092Z,6.10
2019-02-16T11:09:09.188Z,5.50
2019-02-16T11:12:00.396Z,5.43
2019-02-16T11:14:54.889Z,5.57
2019-02-16T11:17:55.755Z,4.60
2019-02-16T11:20:47.142Z,5.13
2019-02-16T11:23:32.684Z,5.10
2019-02-16T11:26:25.266Z,5.23
2019-02-16T11:29:27.154Z,5.93
2019-02-16T11:32:08.938Z,5.23
2019-02-16T11:35:16.111Z,5.30
2019-02-16T11:38:04.716Z,4.90
2019-02-16T11:44:30.095Z,6.13
2019-02-16T11:47:34.689Z,6.57
2019-02-16T11:53:43.699Z,5.17
2019-02-16T11:56:39.184Z,5.97
2019-02-16T11:59:22.689Z,6.53
2019-02-16T12:02:17.106Z,6.97
2019-02-16T12:05:02.177Z,6.77
2019-02-16T12:07:54.574Z,6.47
2019-02-16T12:10:48.897Z,6.80
2019-02-16T12:13:42.159Z,7.47
2019-02-16T12:16:26.689Z,6.60
2019-02-16T12:19:20.895Z,7.33
2019-02-16T12:22:19.896Z,6.90
2019-02-16T12:25:27.897Z,7.27
2019-02-16T12:28:18.615Z,7.33
2019-02-16T12:31:11.144Z,6.63
2019-02-16T12:37:39.666Z,7.57
2019-02-16T12:40:27.173Z,7.30
2019-02-16T12:43:27.397Z,7.17
2019-02-16T12:46:36.297Z,7.20
2019-02-16T12:49:26.617Z,7.67
2019-02-16T12:52:17.012Z,7.23
2019-02-16T12:55:19.887Z,7.30
2019-02-16T12:58:02.099Z,7.17
2019-02-16T13:01:09.900Z,6.80
2019-02-16T13:04:03.696Z,6.33
2019-02-16T13:10:06.682Z,5.90
2019-02-16T13:16:34.691Z,5.70
2019-02-16T13:19:24.695Z,6.17
2019-02-16T13:25:40.158Z,7.03
2019-02-16T13:28:48.164Z,5.80
2019-02-16T13:31:41.014Z,5.47
2019-02-16T13:34:40.226Z,5.67
2019-02-16T13:37:23.696Z,5.60
2019-02-16T13:40:20.182Z,5.50
2019-02-16T13:43:04.700Z,5.30
2019-02-16T13:46:04.702Z,5.77
2019-02-16T13:48:56.728Z,5.50
2019-02-16T13:51:50.152Z,5.70
2019-02-16T13:54:54.270Z,4.90
2019-02-16T13:57:47.324Z,5.23
2019-02-16T14:00:40.995Z,5.63
2019-02-16T14:03:29.139Z,5.03
2019-02-16T14:06:23.216Z,5.37
2019-02-16T14:09:17.912Z,4.80
2019-02-16T14:12:29.698Z,4.77
2019-02-16T14:15:16.925Z,4.63
2019-02-16T14:17:51.960Z,4.63
2019-02-16T14:20:29.698Z,4.93
2019-02-16T14:23:05.301Z,4.40
2019-02-16T14:25:47.914Z,4.77
2019-02-16T14:28:22.333Z,4.47
2019-02-16T14:30:59.531Z,5.30
2019-02-16T14:33:34.709Z,5.13
2019-02-16T14:36:12.151Z,5.40
2019-02-16T14:39:16.053Z,4.60
2019-02-16T14:41:56.206Z,5.20
2019-02-16T14:44:33.731Z,5.40
2019-02-16T14:47:07.919Z,4.83
2019-02-16T14:49:41.921Z,5.27
2019-02-16T14:52:15.931Z,5.10
2019-02-16T14:54:57.936Z,4.83
2019-02-16T14:57:30.913Z,5.07
2019-02-16T15:00:04.923Z,5.10
2019-02-16T15:02:41.703Z,5.00
2019-02-16T15:05:16.707Z,5.40
2019-02-16T15:07:50.708Z,4.80
2019-02-16T15:10:27.649Z,5.27
2019-02-16T15:13:02.343Z,4.40
2019-02-16T15:15:37.173Z,4.03
2019-02-16T15:18:11.702Z,4.87
2019-02-16T15:20:49.914Z,4.87
2019-02-16T15:23:25.703Z,5.47
2019-02-16T15:26:01.665Z,5.73
2019-02-16T15:28:36.641Z,4.97
2019-02-16T15:31:15.034Z,4.93
2019-02-16T15:33:47.937Z,4.23
2019-02-16T15:36:24.443Z,4.10
2019-02-16T15:38:59.705Z,3.87
2019-02-16T15:41:43.077Z,3.87
2019-02-16T15:44:18.923Z,3.67
2019-02-16T15:46:54.982Z,3.30
2019-02-16T15:49:30.705Z,3.73
2019-02-16T15:52:05.461Z,3.77
2019-02-16T15:54:44.186Z,3.27
2019-02-16T15:57:18.710Z,3.77
2019-02-16T15:59:52.746Z,4.00
2019-02-16T16:02:33.170Z,4.20
2019-02-16T16:05:20.083Z,3.90
2019-02-16T16:08:18.711Z,4.00
2019-02-16T16:11:17.253Z,4.40
2019-02-16T16:14:13.707Z,7.63
2019-02-16T16:17:07.707Z,10.53
2019-02-16T16:19:54.706Z,6.47
2019-02-16T16:23:04.224Z,6.23
2019-02-16T16:25:57.073Z,4.93
2019-02-16T16:28:43.576Z,6.10
2019-02-16T16:31:41.959Z,6.90
2019-02-16T16:34:16.173Z,5.57
2019-02-16T16:36:58.708Z,6.50
2019-02-16T16:39:42.249Z,6.20
2019-02-16T16:42:50.891Z,4.90
2019-02-16T16:45:41.227Z,5.63
2019-02-16T16:48:38.992Z,4.80
2019-02-16T16:51:34.916Z,4.30
2019-02-16T16:54:34.649Z,4.90
2019-02-16T16:57:22.725Z,4.00
2019-02-16T17:00:06.302Z,4.57
2019-02-16T17:03:02.224Z,4.87
2019-02-16T17:05:53.321Z,6.73
2019-02-16T17:08:44.242Z,4.97
2019-02-16T17:11:50.199Z,5.00
2019-02-16T17:14:41.212Z,5.93
2019-02-16T17:17:26.277Z,7.73
2019-02-16T17:20:28.137Z,9.67
2019-02-16T17:23:15.050Z,13.53
2019-02-16T17:26:08.925Z,14.03
2019-02-16T17:29:23.905Z,27.83
2019-02-16T17:32:18.179Z,28.33
2019-02-16T17:35:15.133Z,17.50
2019-02-16T17:38:12.069Z,14.60
2019-02-16T17:41:09.711Z,13.37
2019-02-16T17:44:04.333Z,12.17
2019-02-16T17:47:18.290Z,8.83
2019-02-16T17:50:13.713Z,10.17
2019-02-16T17:53:07.769Z,8.47
2019-02-16T17:56:15.286Z,8.60
2019-02-16T17:59:04.220Z,11.33
2019-02-16T18:02:11.721Z,10.57
2019-02-16T18:08:00.182Z,8.00
2019-02-16T18:11:00.411Z,8.53
2019-02-16T18:13:54.280Z,6.50
2019-02-16T18:16:59.017Z,7.60
2019-02-16T18:19:41.719Z,9.23
2019-02-16T18:22:28.333Z,9.10
2019-02-16T18:25:14.629Z,8.80
2019-02-16T18:28:21.406Z,7.50
2019-02-16T18:31:16.742Z,6.97
2019-02-16T18:34:22.262Z,9.80
2019-02-16T18:37:12.720Z,7.90
2019-02-16T18:40:03.776Z,7.33
2019-02-16T18:43:03.275Z,6.07
2019-02-16T18:45:51.727Z,6.13
2019-02-16T18:48:41.190Z,5.93
2019-02-16T18:51:35.721Z,9.10
2019-02-16T18:54:43.721Z,15.77
2019-02-16T18:57:35.925Z,12.53
2019-02-16T19:00:31.721Z,8.43
2019-02-16T19:03:14.727Z,6.90
2019-02-16T19:06:05.071Z,6.63
2019-02-16T19:08:56.726Z,5.97
2019-02-16T19:11:48.115Z,6.53
2019-02-16T19:14:45.255Z,7.50
2019-02-16T19:17:39.957Z,8.93
2019-02-16T19:24:05.588Z,7.60
2019-02-16T19:26:59.730Z,6.27
2019-02-16T19:29:50.276Z,6.10
2019-02-16T19:32:40.099Z,5.07
2019-02-16T19:39:11.209Z,4.37
2019-02-16T19:42:01.740Z,12.30
2019-02-16T19:44:52.199Z,6.30
2019-02-16T19:47:51.016Z,5.30
2019-02-16T19:50:46.093Z,4.77
2019-02-16T19:53:43.245Z,6.03
2019-02-16T20:00:16.050Z,4.90
2019-02-16T20:03:10.949Z,4.50
2019-02-16T20:06:03.596Z,4.27
2019-02-16T20:08:42.754Z,4.30
2019-02-16T20:11:29.434Z,5.13
2019-02-16T20:14:21.468Z,4.30
2019-02-16T20:20:42.394Z,4.77
2019-02-16T20:27:12.129Z,3.77
2019-02-16T20:33:34.079Z,6.07
2019-02-16T20:36:24.729Z,4.17
2019-02-16T20:45:50.961Z,3.73
2019-02-16T20:48:43.732Z,4.27
2019-02-16T20:51:44.229Z,4.37
2019-02-16T20:54:36.262Z,3.87
2019-02-16T20:57:47.042Z,3.83
2019-02-16T21:00:45.670Z,3.80
2019-02-16T21:03:36.318Z,3.90
2019-02-16T21:06:29.068Z,4.27
2019-02-16T21:09:10.142Z,5.00
2019-02-16T21:12:04.222Z,5.00
2019-02-16T21:14:57.076Z,4.60
2019-02-16T21:17:50.426Z,5.17
2019-02-16T21:20:42.162Z,5.63
2019-02-16T21:23:30.751Z,11.87
2019-02-16T21:26:36.623Z,9.80
2019-02-16T21:29:20.742Z,12.27
2019-02-16T21:32:28.661Z,12.80
2019-02-16T21:35:12.969Z,14.47
2019-02-16T21:38:10.942Z,14.93
2019-02-16T21:40:55.804Z,15.73
2019-02-16T21:43:50.089Z,22.30
2019-02-16T21:46:51.951Z,25.13
2019-02-16T21:49:48.106Z,23.47
2019-02-16T21:52:56.704Z,27.73
2019-02-16T21:55:57.952Z,20.03
2019-02-16T21:59:07.413Z,14.60
2019-02-16T22:01:56.964Z,8.73
2019-02-16T22:04:56.607Z,5.97
2019-02-16T22:07:54.134Z,5.17
2019-02-16T22:10:48.214Z,10.83
2019-02-16T22:13:29.747Z,31.80
2019-02-16T22:16:07.748Z,31.33
2019-02-16T22:18:42.770Z,24.97
2019-02-16T22:21:20.227Z,35.93
2019-02-16T22:23:56.752Z,23.70
2019-02-16T22:26:32.958Z,22.67
2019-02-16T22:29:20.695Z,21.80
2019-02-16T22:31:55.754Z,13.17
2019-02-16T22:34:37.758Z,8.20
2019-02-16T22:37:11.759Z,5.80
2019-02-16T22:39:48.617Z,4.07
2019-02-16T22:42:29.150Z,5.33
2019-02-16T22:45:03.175Z,4.63
2019-02-16T22:47:38.208Z,4.00
2019-02-16T22:50:14.266Z,3.43
2019-02-16T22:52:49.095Z,3.43
2019-02-16T22:55:23.759Z,3.77
2019-02-16T22:57:58.139Z,3.97
2019-02-16T23:00:49.965Z,4.33
2019-02-16T23:03:30.529Z,3.90
2019-02-16T23:06:06.387Z,3.80
2019-02-16T23:08:40.755Z,3.97
2019-02-16T23:11:15.748Z,3.90
2019-02-16T23:13:52.097Z,4.27
2019-02-16T23:16:27.948Z,4.30
2019-02-16T23:19:02.983Z,5.83
2019-02-16T23:21:38.221Z,9.40
2019-02-16T23:24:13.257Z,12.13
2019-02-16T23:26:48.082Z,8.80
2019-02-16T23:29:24.349Z,16.70
2019-02-16T23:31:58.969Z,24.63
2019-02-16T23:34:34.411Z,28.67
2019-02-16T23:37:09.036Z,22.23
2019-02-16T23:39:43.749Z,20.97
2019-02-16T23:42:18.694Z,18.33
2019-02-16T23:44:54.341Z,19.47
2019-02-16T23:47:28.970Z,15.27
2019-02-16T23:50:03.181Z,11.30
2019-02-16T23:52:39.236Z,7.60
2019-02-16T23:55:15.298Z,6.70
2019-02-16T23:57:51.971Z,5.53
